sensor_id;sensor_type;location;lat;lon;timestamp;P1;durP1;ratioP1;P2;durP2;ratioP2
48122;SDS011;33907;47.426;18.906;2023-07-31T00:02:07;7.50;;;5.20;;
48122;SDS011;33907;47.426;18.906;2023-07-31T00:04:34;10.25;;;5.40;;
48122;SDS011;33907;47.426;18.906;2023-07-31T00:07:02;7.70;;;5.78;;
48122;SDS011;33907;47.426;18.906;2023-07-31T00:09:32;7.47;;;5.30;;
48122;SDS011;33907;47.426;18.906;2023-07-31T00:12:00;7.25;;;5.37;;
48122;SDS011;33907;47.426;18.906;2023-07-31T00:14:28;7.57;;;5.07;;
48122;SDS011;33907;47.426;18.906;2023-07-31T00:16:56;8.50;;;5.20;;
48122;SDS011;33907;47.426;18.906;2023-07-31T00:19:24;7.60;;;5.80;;
48122;SDS011;33907;47.426;18.906;2023-07-31T00:21:51;7.25;;;5.43;;
48122;SDS011;33907;47.426;18.906;2023-07-31T00:24:18;10.73;;;6.32;;
48122;SDS011;33907;47.426;18.906;2023-07-31T00:26:46;8.00;;;5.75;;
48122;SDS011;33907;47.426;18.906;2023-07-31T00:29:14;7.93;;;6.07;;
48122;SDS011;33907;47.426;18.906;2023-07-31T00:31:41;9.05;;;5.20;;
48122;SDS011;33907;47.426;18.906;2023-07-31T00:34:09;8.88;;;5.40;;
48122;SDS011;33907;47.426;18.906;2023-07-31T00:36:36;7.30;;;5.35;;
48122;SDS011;33907;47.426;18.906;2023-07-31T00:39:06;7.55;;;5.20;;
48122;SDS011;33907;47.426;18.906;2023-07-31T00:41:35;8.00;;;5.25;;
48122;SDS011;33907;47.426;18.906;2023-07-31T00:44:02;7.55;;;4.93;;
48122;SDS011;33907;47.426;18.906;2023-07-31T00:46:30;9.40;;;5.15;;
48122;SDS011;33907;47.426;18.906;2023-07-31T00:48:58;8.43;;;5.22;;
48122;SDS011;33907;47.426;18.906;2023-07-31T00:51:26;8.18;;;5.37;;
48122;SDS011;33907;47.426;18.906;2023-07-31T00:53:53;7.50;;;5.40;;
48122;SDS011;33907;47.426;18.906;2023-07-31T00:56:24;8.65;;;5.12;;
48122;SDS011;33907;47.426;18.906;2023-07-31T00:58:52;7.95;;;5.62;;
48122;SDS011;33907;47.426;18.906;2023-07-31T01:01:20;7.75;;;5.68;;
48122;SDS011;33907;47.426;18.906;2023-07-31T01:03:49;10.13;;;5.70;;
48122;SDS011;33907;47.426;18.906;2023-07-31T01:11:33;8.68;;;5.22;;
48122;SDS011;33907;47.426;18.906;2023-07-31T01:14:02;7.50;;;5.53;;
48122;SDS011;33907;47.426;18.906;2023-07-31T01:16:30;9.05;;;5.55;;
48122;SDS011;33907;47.426;18.906;2023-07-31T01:18:57;7.22;;;5.60;;
48122;SDS011;33907;47.426;18.906;2023-07-31T01:21:30;7.87;;;5.20;;
48122;SDS011;33907;47.426;18.906;2023-07-31T01:32:31;7.00;;;5.28;;
48122;SDS011;33907;47.426;18.906;2023-07-31T01:34:59;7.90;;;5.22;;
48122;SDS011;33907;47.426;18.906;2023-07-31T01:37:28;7.78;;;5.40;;
48122;SDS011;33907;47.426;18.906;2023-07-31T01:39:56;6.32;;;4.93;;
48122;SDS011;33907;47.426;18.906;2023-07-31T01:42:23;7.82;;;4.35;;
48122;SDS011;33907;47.426;18.906;2023-07-31T01:44:51;7.57;;;5.10;;
48122;SDS011;33907;47.426;18.906;2023-07-31T01:47:19;8.77;;;5.07;;
48122;SDS011;33907;47.426;18.906;2023-07-31T01:49:47;6.25;;;4.65;;
48122;SDS011;33907;47.426;18.906;2023-07-31T01:52:15;8.85;;;4.90;;
48122;SDS011;33907;47.426;18.906;2023-07-31T01:54:43;7.22;;;5.37;;
48122;SDS011;33907;47.426;18.906;2023-07-31T01:57:10;8.18;;;5.00;;
48122;SDS011;33907;47.426;18.906;2023-07-31T01:59:38;7.40;;;4.70;;
48122;SDS011;33907;47.426;18.906;2023-07-31T02:02:05;8.07;;;4.78;;
48122;SDS011;33907;47.426;18.906;2023-07-31T02:04:33;9.45;;;4.55;;
48122;SDS011;33907;47.426;18.906;2023-07-31T02:07:02;9.20;;;4.50;;
48122;SDS011;33907;47.426;18.906;2023-07-31T02:09:30;7.35;;;3.95;;
48122;SDS011;33907;47.426;18.906;2023-07-31T02:11:58;7.25;;;3.75;;
48122;SDS011;33907;47.426;18.906;2023-07-31T02:14:26;6.18;;;3.72;;
48122;SDS011;33907;47.426;18.906;2023-07-31T02:16:53;7.72;;;3.70;;
48122;SDS011;33907;47.426;18.906;2023-07-31T02:19:21;5.70;;;3.22;;
48122;SDS011;33907;47.426;18.906;2023-07-31T02:21:49;5.22;;;3.47;;
48122;SDS011;33907;47.426;18.906;2023-07-31T02:24:16;5.35;;;3.17;;
48122;SDS011;33907;47.426;18.906;2023-07-31T02:26:44;5.10;;;2.95;;
48122;SDS011;33907;47.426;18.906;2023-07-31T02:29:11;6.53;;;3.72;;
48122;SDS011;33907;47.426;18.906;2023-07-31T02:31:39;6.22;;;3.50;;
48122;SDS011;33907;47.426;18.906;2023-07-31T02:34:06;6.37;;;4.03;;
48122;SDS011;33907;47.426;18.906;2023-07-31T02:36:34;5.53;;;3.10;;
48122;SDS011;33907;47.426;18.906;2023-07-31T02:39:01;5.00;;;2.55;;
48122;SDS011;33907;47.426;18.906;2023-07-31T02:41:29;7.18;;;3.30;;
48122;SDS011;33907;47.426;18.906;2023-07-31T02:43:57;5.70;;;3.45;;
48122;SDS011;33907;47.426;18.906;2023-07-31T02:46:24;5.05;;;2.92;;
48122;SDS011;33907;47.426;18.906;2023-07-31T02:48:52;5.03;;;3.28;;
48122;SDS011;33907;47.426;18.906;2023-07-31T02:51:20;4.70;;;2.92;;
48122;SDS011;33907;47.426;18.906;2023-07-31T02:53:48;5.15;;;2.95;;
48122;SDS011;33907;47.426;18.906;2023-07-31T02:56:17;5.95;;;3.00;;
48122;SDS011;33907;47.426;18.906;2023-07-31T02:58:45;6.22;;;2.72;;
48122;SDS011;33907;47.426;18.906;2023-07-31T03:01:12;4.57;;;2.90;;
48122;SDS011;33907;47.426;18.906;2023-07-31T03:03:41;4.15;;;2.70;;
48122;SDS011;33907;47.426;18.906;2023-07-31T03:06:11;6.05;;;3.03;;
48122;SDS011;33907;47.426;18.906;2023-07-31T03:08:40;5.05;;;3.10;;
48122;SDS011;33907;47.426;18.906;2023-07-31T03:11:07;5.78;;;2.55;;
48122;SDS011;33907;47.426;18.906;2023-07-31T03:13:35;4.65;;;2.87;;
48122;SDS011;33907;47.426;18.906;2023-07-31T03:16:03;6.65;;;3.35;;
48122;SDS011;33907;47.426;18.906;2023-07-31T03:18:31;6.65;;;2.80;;
48122;SDS011;33907;47.426;18.906;2023-07-31T03:20:58;6.95;;;2.95;;
48122;SDS011;33907;47.426;18.906;2023-07-31T03:23:26;5.00;;;2.85;;
48122;SDS011;33907;47.426;18.906;2023-07-31T03:26:00;5.03;;;2.60;;
48122;SDS011;33907;47.426;18.906;2023-07-31T03:28:30;4.30;;;2.55;;
48122;SDS011;33907;47.426;18.906;2023-07-31T03:30:58;5.55;;;2.62;;
48122;SDS011;33907;47.426;18.906;2023-07-31T03:33:26;6.18;;;2.62;;
48122;SDS011;33907;47.426;18.906;2023-07-31T03:35:55;5.95;;;2.55;;
48122;SDS011;33907;47.426;18.906;2023-07-31T03:38:22;5.35;;;2.58;;
48122;SDS011;33907;47.426;18.906;2023-07-31T03:40:49;6.43;;;2.90;;
48122;SDS011;33907;47.426;18.906;2023-07-31T03:43:17;7.30;;;2.67;;
48122;SDS011;33907;47.426;18.906;2023-07-31T03:45:45;4.68;;;2.58;;
48122;SDS011;33907;47.426;18.906;2023-07-31T03:48:13;5.05;;;2.25;;
48122;SDS011;33907;47.426;18.906;2023-07-31T03:50:41;6.03;;;2.47;;
48122;SDS011;33907;47.426;18.906;2023-07-31T03:53:09;6.03;;;2.30;;
48122;SDS011;33907;47.426;18.906;2023-07-31T03:55:36;5.25;;;2.50;;
48122;SDS011;33907;47.426;18.906;2023-07-31T03:58:04;6.32;;;2.45;;
48122;SDS011;33907;47.426;18.906;2023-07-31T04:00:31;5.57;;;2.83;;
48122;SDS011;33907;47.426;18.906;2023-07-31T04:02:59;4.70;;;2.83;;
48122;SDS011;33907;47.426;18.906;2023-07-31T04:05:27;3.70;;;2.22;;
48122;SDS011;33907;47.426;18.906;2023-07-31T04:07:54;5.95;;;2.33;;
48122;SDS011;33907;47.426;18.906;2023-07-31T04:10:22;5.62;;;2.28;;
48122;SDS011;33907;47.426;18.906;2023-07-31T04:12:50;6.60;;;2.70;;
48122;SDS011;33907;47.426;18.906;2023-07-31T04:15:17;6.75;;;2.53;;
48122;SDS011;33907;47.426;18.906;2023-07-31T04:17:45;4.82;;;2.72;;
48122;SDS011;33907;47.426;18.906;2023-07-31T04:20:12;5.90;;;2.40;;
48122;SDS011;33907;47.426;18.906;2023-07-31T04:22:40;5.22;;;2.20;;
48122;SDS011;33907;47.426;18.906;2023-07-31T04:25:08;4.30;;;2.20;;
48122;SDS011;33907;47.426;18.906;2023-07-31T04:27:35;6.03;;;2.25;;
48122;SDS011;33907;47.426;18.906;2023-07-31T04:30:03;5.53;;;2.42;;
48122;SDS011;33907;47.426;18.906;2023-07-31T04:32:31;5.75;;;2.28;;
48122;SDS011;33907;47.426;18.906;2023-07-31T04:34:58;5.70;;;2.50;;
48122;SDS011;33907;47.426;18.906;2023-07-31T04:37:26;4.85;;;2.35;;
48122;SDS011;33907;47.426;18.906;2023-07-31T04:39:54;5.22;;;2.58;;
48122;SDS011;33907;47.426;18.906;2023-07-31T04:42:21;3.90;;;1.90;;
48122;SDS011;33907;47.426;18.906;2023-07-31T04:44:49;4.93;;;2.37;;
48122;SDS011;33907;47.426;18.906;2023-07-31T04:47:17;4.80;;;2.33;;
48122;SDS011;33907;47.426;18.906;2023-07-31T04:49:44;5.07;;;2.30;;
48122;SDS011;33907;47.426;18.906;2023-07-31T04:52:12;6.75;;;2.80;;
48122;SDS011;33907;47.426;18.906;2023-07-31T04:54:39;5.93;;;2.35;;
48122;SDS011;33907;47.426;18.906;2023-07-31T04:57:07;6.20;;;2.25;;
48122;SDS011;33907;47.426;18.906;2023-07-31T04:59:34;5.28;;;1.90;;
48122;SDS011;33907;47.426;18.906;2023-07-31T05:02:02;4.03;;;1.58;;
48122;SDS011;33907;47.426;18.906;2023-07-31T05:04:29;3.83;;;1.83;;
48122;SDS011;33907;47.426;18.906;2023-07-31T05:06:57;4.80;;;1.95;;
48122;SDS011;33907;47.426;18.906;2023-07-31T05:09:25;2.83;;;1.48;;
48122;SDS011;33907;47.426;18.906;2023-07-31T05:11:52;3.40;;;1.45;;
48122;SDS011;33907;47.426;18.906;2023-07-31T05:14:20;3.47;;;1.30;;
48122;SDS011;33907;47.426;18.906;2023-07-31T05:16:47;6.25;;;1.80;;
48122;SDS011;33907;47.426;18.906;2023-07-31T05:19:15;3.37;;;1.30;;
48122;SDS011;33907;47.426;18.906;2023-07-31T05:21:45;5.20;;;1.70;;
48122;SDS011;33907;47.426;18.906;2023-07-31T05:24:13;4.37;;;1.55;;
48122;SDS011;33907;47.426;18.906;2023-07-31T05:26:40;3.62;;;1.27;;
48122;SDS011;33907;47.426;18.906;2023-07-31T05:29:08;5.78;;;1.55;;
48122;SDS011;33907;47.426;18.906;2023-07-31T05:31:36;3.47;;;1.40;;
48122;SDS011;33907;47.426;18.906;2023-07-31T05:34:05;5.62;;;1.70;;
48122;SDS011;33907;47.426;18.906;2023-07-31T05:36:33;5.80;;;1.65;;
48122;SDS011;33907;47.426;18.906;2023-07-31T05:39:00;3.40;;;1.37;;
48122;SDS011;33907;47.426;18.906;2023-07-31T05:41:33;7.05;;;2.10;;
48122;SDS011;33907;47.426;18.906;2023-07-31T05:44:02;4.45;;;1.60;;
48122;SDS011;33907;47.426;18.906;2023-07-31T05:46:29;4.28;;;1.60;;
48122;SDS011;33907;47.426;18.906;2023-07-31T05:48:58;4.80;;;1.65;;
48122;SDS011;33907;47.426;18.906;2023-07-31T05:51:28;6.68;;;1.37;;
48122;SDS011;33907;47.426;18.906;2023-07-31T05:53:56;3.70;;;1.50;;
48122;SDS011;33907;47.426;18.906;2023-07-31T05:56:23;5.45;;;1.55;;
48122;SDS011;33907;47.426;18.906;2023-07-31T05:58:51;6.20;;;1.75;;
48122;SDS011;33907;47.426;18.906;2023-07-31T06:01:18;4.15;;;1.83;;
48122;SDS011;33907;47.426;18.906;2023-07-31T06:03:48;5.22;;;1.60;;
48122;SDS011;33907;47.426;18.906;2023-07-31T06:06:16;4.68;;;1.65;;
48122;SDS011;33907;47.426;18.906;2023-07-31T06:08:43;5.50;;;1.80;;
48122;SDS011;33907;47.426;18.906;2023-07-31T06:11:11;5.18;;;1.73;;
48122;SDS011;33907;47.426;18.906;2023-07-31T06:13:38;4.55;;;1.70;;
48122;SDS011;33907;47.426;18.906;2023-07-31T06:16:09;4.70;;;1.48;;
48122;SDS011;33907;47.426;18.906;2023-07-31T06:18:36;4.72;;;1.50;;
48122;SDS011;33907;47.426;18.906;2023-07-31T06:21:04;5.30;;;1.60;;
48122;SDS011;33907;47.426;18.906;2023-07-31T06:23:31;4.20;;;1.92;;
48122;SDS011;33907;47.426;18.906;2023-07-31T06:25:59;5.10;;;1.52;;
48122;SDS011;33907;47.426;18.906;2023-07-31T06:28:27;6.07;;;1.90;;
48122;SDS011;33907;47.426;18.906;2023-07-31T06:30:56;10.25;;;1.70;;
48122;SDS011;33907;47.426;18.906;2023-07-31T06:33:27;7.10;;;1.65;;
48122;SDS011;33907;47.426;18.906;2023-07-31T06:35:55;3.62;;;1.33;;
48122;SDS011;33907;47.426;18.906;2023-07-31T06:38:24;5.35;;;1.98;;
48122;SDS011;33907;47.426;18.906;2023-07-31T06:40:53;3.42;;;1.37;;
48122;SDS011;33907;47.426;18.906;2023-07-31T06:43:21;6.35;;;1.62;;
48122;SDS011;33907;47.426;18.906;2023-07-31T06:45:48;3.90;;;1.48;;
48122;SDS011;33907;47.426;18.906;2023-07-31T06:48:19;5.95;;;1.80;;
48122;SDS011;33907;47.426;18.906;2023-07-31T06:50:47;5.05;;;1.73;;
48122;SDS011;33907;47.426;18.906;2023-07-31T06:53:14;4.93;;;1.25;;
48122;SDS011;33907;47.426;18.906;2023-07-31T06:55:42;5.70;;;1.85;;
48122;SDS011;33907;47.426;18.906;2023-07-31T06:58:09;4.62;;;1.75;;
48122;SDS011;33907;47.426;18.906;2023-07-31T07:00:37;6.55;;;1.42;;
48122;SDS011;33907;47.426;18.906;2023-07-31T07:03:05;5.05;;;1.60;;
48122;SDS011;33907;47.426;18.906;2023-07-31T07:05:32;4.03;;;1.30;;
48122;SDS011;33907;47.426;18.906;2023-07-31T07:08:00;5.85;;;1.77;;
48122;SDS011;33907;47.426;18.906;2023-07-31T07:10:27;4.22;;;1.62;;
48122;SDS011;33907;47.426;18.906;2023-07-31T07:12:55;3.58;;;1.45;;
48122;SDS011;33907;47.426;18.906;2023-07-31T07:15:22;4.78;;;1.50;;
48122;SDS011;33907;47.426;18.906;2023-07-31T07:17:50;4.55;;;1.48;;
48122;SDS011;33907;47.426;18.906;2023-07-31T07:20:17;5.15;;;1.30;;
48122;SDS011;33907;47.426;18.906;2023-07-31T07:22:47;4.07;;;1.60;;
48122;SDS011;33907;47.426;18.906;2023-07-31T07:25:14;3.97;;;1.60;;
48122;SDS011;33907;47.426;18.906;2023-07-31T07:27:42;6.28;;;1.95;;
48122;SDS011;33907;47.426;18.906;2023-07-31T07:30:09;4.90;;;1.45;;
48122;SDS011;33907;47.426;18.906;2023-07-31T07:32:37;4.03;;;1.30;;
48122;SDS011;33907;47.426;18.906;2023-07-31T07:35:05;8.27;;;1.58;;
48122;SDS011;33907;47.426;18.906;2023-07-31T07:37:33;4.07;;;1.20;;
48122;SDS011;33907;47.426;18.906;2023-07-31T07:40:01;4.97;;;1.30;;
48122;SDS011;33907;47.426;18.906;2023-07-31T07:42:29;3.78;;;1.33;;
48122;SDS011;33907;47.426;18.906;2023-07-31T07:44:56;6.10;;;1.60;;
48122;SDS011;33907;47.426;18.906;2023-07-31T07:47:24;7.03;;;1.60;;
48122;SDS011;33907;47.426;18.906;2023-07-31T07:49:54;5.53;;;1.58;;
48122;SDS011;33907;47.426;18.906;2023-07-31T07:52:22;3.80;;;1.60;;
48122;SDS011;33907;47.426;18.906;2023-07-31T07:54:50;8.02;;;1.87;;
48122;SDS011;33907;47.426;18.906;2023-07-31T07:57:18;6.30;;;2.33;;
48122;SDS011;33907;47.426;18.906;2023-07-31T07:59:45;4.47;;;1.37;;
48122;SDS011;33907;47.426;18.906;2023-07-31T08:02:13;4.28;;;1.30;;
48122;SDS011;33907;47.426;18.906;2023-07-31T08:04:41;6.32;;;1.77;;
48122;SDS011;33907;47.426;18.906;2023-07-31T08:07:10;4.50;;;1.50;;
48122;SDS011;33907;47.426;18.906;2023-07-31T08:09:40;5.60;;;1.50;;
48122;SDS011;33907;47.426;18.906;2023-07-31T08:12:08;5.57;;;1.60;;
48122;SDS011;33907;47.426;18.906;2023-07-31T08:14:36;6.43;;;1.60;;
48122;SDS011;33907;47.426;18.906;2023-07-31T08:17:03;3.92;;;1.87;;
48122;SDS011;33907;47.426;18.906;2023-07-31T08:19:32;3.83;;;1.73;;
48122;SDS011;33907;47.426;18.906;2023-07-31T08:21:59;5.18;;;1.45;;
48122;SDS011;33907;47.426;18.906;2023-07-31T08:24:27;4.18;;;1.58;;
48122;SDS011;33907;47.426;18.906;2023-07-31T08:26:54;4.65;;;1.75;;
48122;SDS011;33907;47.426;18.906;2023-07-31T08:29:22;4.72;;;1.80;;
48122;SDS011;33907;47.426;18.906;2023-07-31T08:31:49;6.20;;;1.60;;
48122;SDS011;33907;47.426;18.906;2023-07-31T08:34:17;5.80;;;1.60;;
48122;SDS011;33907;47.426;18.906;2023-07-31T08:36:44;5.15;;;1.60;;
48122;SDS011;33907;47.426;18.906;2023-07-31T08:39:12;3.47;;;1.27;;
48122;SDS011;33907;47.426;18.906;2023-07-31T08:41:40;6.82;;;1.67;;
48122;SDS011;33907;47.426;18.906;2023-07-31T08:44:08;4.32;;;1.67;;
48122;SDS011;33907;47.426;18.906;2023-07-31T08:46:36;7.93;;;1.50;;
48122;SDS011;33907;47.426;18.906;2023-07-31T08:49:06;7.43;;;1.87;;
48122;SDS011;33907;47.426;18.906;2023-07-31T08:51:34;5.43;;;1.40;;
48122;SDS011;33907;47.426;18.906;2023-07-31T08:54:02;4.12;;;1.30;;
48122;SDS011;33907;47.426;18.906;2023-07-31T08:56:33;7.03;;;1.50;;
48122;SDS011;33907;47.426;18.906;2023-07-31T08:59:01;3.80;;;1.30;;
48122;SDS011;33907;47.426;18.906;2023-07-31T09:01:30;5.45;;;1.50;;
48122;SDS011;33907;47.426;18.906;2023-07-31T09:03:59;4.10;;;1.50;;
48122;SDS011;33907;47.426;18.906;2023-07-31T09:06:28;7.47;;;1.50;;
48122;SDS011;33907;47.426;18.906;2023-07-31T09:08:57;4.78;;;1.42;;
48122;SDS011;33907;47.426;18.906;2023-07-31T09:11:25;6.32;;;1.30;;
48122;SDS011;33907;47.426;18.906;2023-07-31T09:13:52;5.80;;;1.73;;
48122;SDS011;33907;47.426;18.906;2023-07-31T09:16:26;6.57;;;1.52;;
48122;SDS011;33907;47.426;18.906;2023-07-31T09:18:55;6.20;;;1.45;;
48122;SDS011;33907;47.426;18.906;2023-07-31T09:21:24;6.85;;;1.45;;
48122;SDS011;33907;47.426;18.906;2023-07-31T09:23:54;6.85;;;1.50;;
48122;SDS011;33907;47.426;18.906;2023-07-31T09:26:31;5.65;;;1.58;;
48122;SDS011;33907;47.426;18.906;2023-07-31T09:29:01;7.32;;;1.67;;
48122;SDS011;33907;47.426;18.906;2023-07-31T09:31:38;4.50;;;1.85;;
48122;SDS011;33907;47.426;18.906;2023-07-31T09:34:09;4.68;;;1.60;;
48122;SDS011;33907;47.426;18.906;2023-07-31T09:36:45;5.20;;;1.37;;
48122;SDS011;33907;47.426;18.906;2023-07-31T09:39:14;4.87;;;1.15;;
48122;SDS011;33907;47.426;18.906;2023-07-31T09:41:44;4.62;;;1.00;;
48122;SDS011;33907;47.426;18.906;2023-07-31T09:44:13;4.72;;;1.40;;
48122;SDS011;33907;47.426;18.906;2023-07-31T09:46:41;6.28;;;1.45;;
48122;SDS011;33907;47.426;18.906;2023-07-31T09:49:11;5.00;;;1.30;;
48122;SDS011;33907;47.426;18.906;2023-07-31T09:51:39;9.85;;;1.52;;
48122;SDS011;33907;47.426;18.906;2023-07-31T09:54:08;7.15;;;1.52;;
48122;SDS011;33907;47.426;18.906;2023-07-31T09:56:41;4.40;;;1.37;;
48122;SDS011;33907;47.426;18.906;2023-07-31T09:59:17;4.47;;;1.17;;
48122;SDS011;33907;47.426;18.906;2023-07-31T10:01:50;3.47;;;1.37;;
48122;SDS011;33907;47.426;18.906;2023-07-31T10:04:19;5.60;;;1.37;;
48122;SDS011;33907;47.426;18.906;2023-07-31T10:06:53;6.40;;;1.30;;
48122;SDS011;33907;47.426;18.906;2023-07-31T10:09:23;6.28;;;3.17;;
48122;SDS011;33907;47.426;18.906;2023-07-31T10:11:53;7.70;;;1.60;;
48122;SDS011;33907;47.426;18.906;2023-07-31T10:14:24;4.32;;;1.17;;
48122;SDS011;33907;47.426;18.906;2023-07-31T10:16:53;10.68;;;2.67;;
48122;SDS011;33907;47.426;18.906;2023-07-31T10:19:20;4.97;;;1.60;;
48122;SDS011;33907;47.426;18.906;2023-07-31T10:21:49;6.95;;;1.48;;
48122;SDS011;33907;47.426;18.906;2023-07-31T10:24:16;4.10;;;1.17;;
48122;SDS011;33907;47.426;18.906;2023-07-31T10:26:45;6.00;;;1.90;;
48122;SDS011;33907;47.426;18.906;2023-07-31T10:29:14;3.72;;;1.40;;
48122;SDS011;33907;47.426;18.906;2023-07-31T10:31:43;5.57;;;1.25;;
48122;SDS011;33907;47.426;18.906;2023-07-31T10:34:11;3.60;;;0.90;;
48122;SDS011;33907;47.426;18.906;2023-07-31T10:36:40;5.40;;;1.50;;
48122;SDS011;33907;47.426;18.906;2023-07-31T10:39:33;4.90;;;1.35;;
48122;SDS011;33907;47.426;18.906;2023-07-31T10:42:09;6.27;;;1.53;;
48122;SDS011;33907;47.426;18.906;2023-07-31T10:44:49;5.57;;;1.45;;
48122;SDS011;33907;47.426;18.906;2023-07-31T10:47:17;5.82;;;1.37;;
48122;SDS011;33907;47.426;18.906;2023-07-31T10:49:45;10.00;;;1.48;;
48122;SDS011;33907;47.426;18.906;2023-07-31T10:52:13;7.00;;;1.55;;
48122;SDS011;33907;47.426;18.906;2023-07-31T10:58:07;4.53;;;1.50;;
48122;SDS011;33907;47.426;18.906;2023-07-31T11:00:39;6.95;;;1.40;;
48122;SDS011;33907;47.426;18.906;2023-07-31T11:03:18;5.10;;;1.10;;
48122;SDS011;33907;47.426;18.906;2023-07-31T11:08:27;5.03;;;1.33;;
48122;SDS011;33907;47.426;18.906;2023-07-31T11:13:33;5.12;;;1.12;;
48122;SDS011;33907;47.426;18.906;2023-07-31T11:16:07;5.15;;;1.20;;
48122;SDS011;33907;47.426;18.906;2023-07-31T11:18:37;5.80;;;1.50;;
48122;SDS011;33907;47.426;18.906;2023-07-31T11:21:06;4.53;;;1.20;;
48122;SDS011;33907;47.426;18.906;2023-07-31T11:23:36;5.12;;;1.10;;
48122;SDS011;33907;47.426;18.906;2023-07-31T11:26:04;6.55;;;1.20;;
48122;SDS011;33907;47.426;18.906;2023-07-31T11:28:33;5.20;;;1.20;;
48122;SDS011;33907;47.426;18.906;2023-07-31T11:31:02;6.12;;;1.35;;
48122;SDS011;33907;47.426;18.906;2023-07-31T11:33:30;3.90;;;1.20;;
48122;SDS011;33907;47.426;18.906;2023-07-31T11:35:58;5.50;;;1.20;;
48122;SDS011;33907;47.426;18.906;2023-07-31T11:38:27;6.20;;;1.17;;
48122;SDS011;33907;47.426;18.906;2023-07-31T11:40:59;6.47;;;1.10;;
48122;SDS011;33907;47.426;18.906;2023-07-31T11:43:32;7.20;;;1.58;;
48122;SDS011;33907;47.426;18.906;2023-07-31T11:46:00;4.30;;;1.23;;
48122;SDS011;33907;47.426;18.906;2023-07-31T11:48:34;3.65;;;0.90;;
48122;SDS011;33907;47.426;18.906;2023-07-31T11:51:04;3.00;;;1.20;;
48122;SDS011;33907;47.426;18.906;2023-07-31T11:53:36;4.82;;;1.08;;
48122;SDS011;33907;47.426;18.906;2023-07-31T11:56:12;5.50;;;1.30;;
48122;SDS011;33907;47.426;18.906;2023-07-31T11:58:41;5.70;;;1.27;;
48122;SDS011;33907;47.426;18.906;2023-07-31T12:01:10;7.22;;;1.20;;
48122;SDS011;33907;47.426;18.906;2023-07-31T12:03:39;3.62;;;1.15;;
48122;SDS011;33907;47.426;18.906;2023-07-31T12:06:09;2.30;;;0.82;;
48122;SDS011;33907;47.426;18.906;2023-07-31T12:08:37;3.95;;;0.90;;
48122;SDS011;33907;47.426;18.906;2023-07-31T12:11:05;5.90;;;1.30;;
48122;SDS011;33907;47.426;18.906;2023-07-31T12:13:34;3.87;;;1.17;;
48122;SDS011;33907;47.426;18.906;2023-07-31T12:16:03;4.65;;;1.30;;
48122;SDS011;33907;47.426;18.906;2023-07-31T12:18:36;4.85;;;1.27;;
48122;SDS011;33907;47.426;18.906;2023-07-31T12:21:06;5.32;;;1.05;;
48122;SDS011;33907;47.426;18.906;2023-07-31T12:23:36;4.22;;;1.12;;
48122;SDS011;33907;47.426;18.906;2023-07-31T12:26:08;5.75;;;1.20;;
48122;SDS011;33907;47.426;18.906;2023-07-31T12:28:49;3.87;;;1.17;;
48122;SDS011;33907;47.426;18.906;2023-07-31T12:31:19;5.22;;;1.30;;
48122;SDS011;33907;47.426;18.906;2023-07-31T12:33:51;4.90;;;1.20;;
48122;SDS011;33907;47.426;18.906;2023-07-31T12:36:20;3.85;;;1.10;;
48122;SDS011;33907;47.426;18.906;2023-07-31T12:38:49;6.45;;;1.27;;
48122;SDS011;33907;47.426;18.906;2023-07-31T12:41:17;4.87;;;0.98;;
48122;SDS011;33907;47.426;18.906;2023-07-31T12:43:45;6.43;;;1.20;;
48122;SDS011;33907;47.426;18.906;2023-07-31T12:46:14;4.75;;;1.30;;
48122;SDS011;33907;47.426;18.906;2023-07-31T12:48:42;6.53;;;1.37;;
48122;SDS011;33907;47.426;18.906;2023-07-31T12:51:10;3.92;;;1.08;;
48122;SDS011;33907;47.426;18.906;2023-07-31T12:53:37;4.30;;;1.20;;
48122;SDS011;33907;47.426;18.906;2023-07-31T12:56:05;5.82;;;1.37;;
48122;SDS011;33907;47.426;18.906;2023-07-31T12:58:32;7.15;;;1.37;;
48122;SDS011;33907;47.426;18.906;2023-07-31T13:01:00;3.75;;;1.20;;
48122;SDS011;33907;47.426;18.906;2023-07-31T13:03:29;5.97;;;1.10;;
48122;SDS011;33907;47.426;18.906;2023-07-31T13:05:57;3.92;;;1.05;;
48122;SDS011;33907;47.426;18.906;2023-07-31T13:08:25;7.53;;;1.50;;
48122;SDS011;33907;47.426;18.906;2023-07-31T13:10:53;4.53;;;1.15;;
48122;SDS011;33907;47.426;18.906;2023-07-31T13:13:20;5.68;;;1.20;;
48122;SDS011;33907;47.426;18.906;2023-07-31T13:15:49;4.30;;;1.30;;
48122;SDS011;33907;47.426;18.906;2023-07-31T13:18:17;4.50;;;1.30;;
48122;SDS011;33907;47.426;18.906;2023-07-31T13:20:44;4.18;;;1.23;;
48122;SDS011;33907;47.426;18.906;2023-07-31T13:23:12;5.43;;;1.20;;
48122;SDS011;33907;47.426;18.906;2023-07-31T13:25:40;4.45;;;1.20;;
48122;SDS011;33907;47.426;18.906;2023-07-31T13:28:07;4.78;;;1.20;;
48122;SDS011;33907;47.426;18.906;2023-07-31T13:30:35;3.42;;;1.10;;
48122;SDS011;33907;47.426;18.906;2023-07-31T13:33:02;5.50;;;1.48;;
48122;SDS011;33907;47.426;18.906;2023-07-31T13:35:30;3.40;;;0.93;;
48122;SDS011;33907;47.426;18.906;2023-07-31T13:38:01;5.55;;;1.65;;
48122;SDS011;33907;47.426;18.906;2023-07-31T13:40:29;5.32;;;1.10;;
48122;SDS011;33907;47.426;18.906;2023-07-31T13:42:56;4.50;;;1.37;;
48122;SDS011;33907;47.426;18.906;2023-07-31T13:45:24;4.40;;;1.17;;
48122;SDS011;33907;47.426;18.906;2023-07-31T13:47:52;4.72;;;1.12;;
48122;SDS011;33907;47.426;18.906;2023-07-31T13:50:19;6.10;;;1.02;;
48122;SDS011;33907;47.426;18.906;2023-07-31T13:52:50;4.43;;;1.30;;
48122;SDS011;33907;47.426;18.906;2023-07-31T13:55:18;6.45;;;1.30;;
48122;SDS011;33907;47.426;18.906;2023-07-31T13:57:47;6.28;;;1.08;;
48122;SDS011;33907;47.426;18.906;2023-07-31T14:00:16;4.30;;;1.20;;
48122;SDS011;33907;47.426;18.906;2023-07-31T14:02:44;4.20;;;1.10;;
48122;SDS011;33907;47.426;18.906;2023-07-31T14:05:12;6.50;;;1.45;;
48122;SDS011;33907;47.426;18.906;2023-07-31T14:07:39;5.55;;;1.15;;
48122;SDS011;33907;47.426;18.906;2023-07-31T14:10:07;4.25;;;1.25;;
48122;SDS011;33907;47.426;18.906;2023-07-31T14:12:35;5.80;;;1.58;;
48122;SDS011;33907;47.426;18.906;2023-07-31T14:15:10;6.05;;;2.22;;
48122;SDS011;33907;47.426;18.906;2023-07-31T14:17:38;4.53;;;1.42;;
48122;SDS011;33907;47.426;18.906;2023-07-31T14:20:06;5.35;;;1.30;;
48122;SDS011;33907;47.426;18.906;2023-07-31T14:22:35;6.43;;;1.50;;
48122;SDS011;33907;47.426;18.906;2023-07-31T14:25:05;7.55;;;1.50;;
48122;SDS011;33907;47.426;18.906;2023-07-31T14:27:32;3.53;;;1.08;;
48122;SDS011;33907;47.426;18.906;2023-07-31T14:30:00;4.93;;;1.12;;
48122;SDS011;33907;47.426;18.906;2023-07-31T14:32:28;4.70;;;1.17;;
48122;SDS011;33907;47.426;18.906;2023-07-31T14:34:55;3.97;;;1.12;;
48122;SDS011;33907;47.426;18.906;2023-07-31T14:37:25;6.40;;;1.60;;
48122;SDS011;33907;47.426;18.906;2023-07-31T14:39:53;3.90;;;1.10;;
48122;SDS011;33907;47.426;18.906;2023-07-31T14:42:21;4.97;;;1.08;;
48122;SDS011;33907;47.426;18.906;2023-07-31T14:44:49;5.05;;;1.25;;
48122;SDS011;33907;47.426;18.906;2023-07-31T14:47:16;4.62;;;1.40;;
48122;SDS011;33907;47.426;18.906;2023-07-31T14:49:43;4.95;;;1.85;;
48122;SDS011;33907;47.426;18.906;2023-07-31T14:52:11;3.58;;;1.05;;
48122;SDS011;33907;47.426;18.906;2023-07-31T14:54:39;5.18;;;1.48;;
48122;SDS011;33907;47.426;18.906;2023-07-31T14:57:06;3.20;;;1.00;;
48122;SDS011;33907;47.426;18.906;2023-07-31T14:59:34;3.12;;;1.05;;
48122;SDS011;33907;47.426;18.906;2023-07-31T15:02:01;3.80;;;1.00;;
48122;SDS011;33907;47.426;18.906;2023-07-31T15:04:30;6.43;;;1.30;;